Time,TemperatureF,DewpointF,PressureIn,WindDirection,WindDirectionDegrees,WindSpeedMPH,WindSpeedGustMPH,Humidity,HourlyPrecipIn,Conditions,Clouds,dailyrainin,SoftwareType,DateUTC
2013-10-28 00:02:00,35.1,35.1,31.01,NNW,342,0.0,0.0,100,0.00,,,0.00,VWS V13.01,2013-10-28 04:02:00,
2013-10-28 00:04:00,35.1,35.1,31.01,NNW,342,0.0,0.0,100,0.00,,,0.00,VWS V13.01,2013-10-28 04:04:00,
2013-10-28 00:06:00,35.1,35.1,31.01,NNW,342,0.0,0.0,100,0.00,,,0.00,VWS V13.01,2013-10-28 04:06:00,
2013-10-28 00:08:00,35.1,35.1,31.01,NNW,342,0.0,0.0,100,0.00,,,0.00,VWS V13.01,2013-10-28 04:08:00,
2013-10-28 00:14:00,34.9,34.9,31.01,NNW,342,0.0,0.0,100,0.00,,,0.00,VWS V13.01,2013-10-28 04:14:00,
2013-10-28 00:20:00,35.1,35.1,31.01,NNW,342,0.0,0.0,100,0.00,,,0.00,VWS V13.01,2013-10-28 04:20:00,
2013-10-28 00:24:00,34.9,34.9,31.01,NNW,342,0.0,0.0,100,0.00,,,0.00,VWS V13.01,2013-10-28 04:24:00,
2013-10-28 00:30:00,34.9,34.9,31.01,NNW,342,0.0,0.0,100,0.00,,,0.00,VWS V13.01,2013-10-28 04:30:00,
2013-10-28 00:36:00,34.9,34.9,31.01,NNW,342,0.0,0.0,100,0.00,,,0.00,VWS V13.01,2013-10-28 04:36:00,
2013-10-28 00:40:00,34.9,34.9,31.01,NNW,342,0.0,0.0,100,0.00,,,0.00,VWS V13.01,2013-10-28 04:40:00,
2013-10-28 00:46:00,34.9,34.9,31.01,NNW,342,0.0,0.0,100,0.00,,,0.00,VWS V13.01,2013-10-28 04:46:00,
2013-10-28 00:52:00,34.9,34.9,31.01,NNW,342,0.0,0.0,100,0.00,,,0.00,VWS V13.01,2013-10-28 04:52:00,
2013-10-28 00:58:00,35.1,35.1,31.01,NNW,342,0.0,0.0,100,0.00,,,0.00,VWS V13.01,2013-10-28 04:58:00,
2013-10-28 01:04:00,35.4,35.4,31.01,NNW,329,0.0,0.0,100,0.00,,,0.00,VWS V13.01,2013-10-28 05:04:00,
2013-10-28 01:10:00,35.6,35.6,31.01,NNW,332,0.0,0.0,100,0.00,,,0.00,VWS V13.01,2013-10-28 05:10:00,
2013-10-28 01:16:00,35.8,35.8,31.01,NNW,331,0.0,0.0,100,0.00,,,0.00,VWS V13.01,2013-10-28 05:16:00,
2013-10-28 01:22:00,36.0,36.0,31.01,NW,310,0.0,8.1,100,0.00,,,0.00,VWS V13.01,2013-10-28 05:22:00,
2013-10-28 01:28:00,36.0,36.0,31.01,NNW,327,0.0,0.0,100,0.00,,,0.00,VWS V13.01,2013-10-28 05:28:00,
2013-10-28 01:34:00,36.1,36.1,31.01,NW,314,0.0,0.0,100,0.00,,,0.00,VWS V13.01,2013-10-28 05:34:00,
2013-10-28 01:40:00,36.3,36.3,31.01,NW,314,0.0,0.0,100,0.00,,,0.00,VWS V13.01,2013-10-28 05:40:00,
2013-10-28 01:46:00,36.3,36.3,31.01,NW,314,0.0,0.0,100,0.00,,,0.00,VWS V13.01,2013-10-28 05:46:00,
2013-10-28 01:52:00,36.3,36.3,31.01,NW,314,0.0,0.0,100,0.00,,,0.00,VWS V13.01,2013-10-28 05:52:00,
2013-10-28 01:58:00,36.5,36.5,31.01,NW,307,0.0,0.0,100,0.00,,,0.00,VWS V13.01,2013-10-28 05:58:00,
2013-10-28 02:04:00,36.3,36.3,31.01,NW,307,0.0,0.0,100,0.00,,,0.00,VWS V13.01,2013-10-28 06:04:00,
2013-10-28 02:10:00,36.3,36.3,31.01,NW,307,0.0,0.0,100,0.00,,,0.00,VWS V13.01,2013-10-28 06:10:00,
2013-10-28 02:16:00,36.5,36.5,31.01,NW,304,0.0,0.0,100,0.00,,,0.00,VWS V13.01,2013-10-28 06:16:00,
2013-10-28 02:22:00,36.5,36.5,31.01,West,280,0.0,0.0,100,0.00,,,0.00,VWS V13.01,2013-10-28 06:22:00,
2013-10-28 02:28:00,36.7,36.7,31.01,WNW,284,0.0,5.4,100,0.00,,,0.00,VWS V13.01,2013-10-28 06:28:00,
2013-10-28 02:34:00,36.7,36.7,31.01,WNW,284,0.0,0.0,100,0.00,,,0.00,VWS V13.01,2013-10-28 06:34:00,
2013-10-28 02:40:00,36.9,36.9,31.01,WNW,285,0.0,0.0,100,0.00,,,0.00,VWS V13.01,2013-10-28 06:40:00,
2013-10-28 02:46:00,37.0,37.0,31.01,WNW,285,0.0,0.0,100,0.00,,,0.00,VWS V13.01,2013-10-28 06:46:00,
2013-10-28 02:52:00,37.0,37.0,31.01,WNW,285,0.0,0.0,100,0.00,,,0.00,VWS V13.01,2013-10-28 06:52:00,
2013-10-28 02:58:00,37.0,37.0,31.01,WNW,285,0.0,0.0,100,0.00,,,0.00,VWS V13.01,2013-10-28 06:58:00,
2013-10-28 03:04:00,37.0,37.0,31.01,WNW,285,0.0,0.0,100,0.00,,,0.00,VWS V13.01,2013-10-28 07:04:00,
2013-10-28 03:10:00,37.0,37.0,31.01,WNW,285,0.0,0.0,100,0.00,,,0.00,VWS V13.01,2013-10-28 07:10:00,
2013-10-28 03:16:00,36.9,36.9,31.01,WNW,285,0.0,0.0,100,0.00,,,0.00,VWS V13.01,2013-10-28 07:16:00,
2013-10-28 03:22:00,36.9,36.9,31.01,WNW,285,0.0,0.0,100,0.00,,,0.00,VWS V13.01,2013-10-28 07:22:00,
2013-10-28 03:28:00,37.0,37.0,31.01,WNW,285,0.0,0.0,100,0.00,,,0.00,VWS V13.01,2013-10-28 07:28:00,
2013-10-28 03:34:00,36.9,36.9,31.01,WNW,285,0.0,0.0,100,0.00,,,0.00,VWS V13.01,2013-10-28 07:34:00,
2013-10-28 03:40:00,36.9,36.9,31.01,WNW,286,0.0,0.0,100,0.00,,,0.00,VWS V13.01,2013-10-28 07:40:00,
2013-10-28 03:46:00,37.0,37.0,31.01,WNW,289,0.0,0.0,100,0.00,,,0.00,VWS V13.01,2013-10-28 07:46:00,
2013-10-28 03:52:00,37.2,37.2,31.01,WSW,248,0.0,0.0,100,0.00,,,0.00,VWS V13.01,2013-10-28 07:52:00,
2013-10-28 03:58:00,37.2,37.2,31.01,WSW,248,0.0,0.0,100,0.00,,,0.00,VWS V13.01,2013-10-28 07:58:00,
2013-10-28 04:04:00,37.4,37.4,31.01,West,260,0.0,0.0,100,0.00,,,0.00,VWS V13.01,2013-10-28 08:04:00,
2013-10-28 04:09:00,37.4,37.4,31.01,West,260,0.0,0.0,100,0.00,,,0.00,VWS V13.01,2013-10-28 08:09:00,
2013-10-28 04:16:00,37.4,37.4,31.01,WSW,249,0.0,0.0,100,0.00,,,0.00,VWS V13.01,2013-10-28 08:16:00,
2013-10-28 04:22:00,37.6,37.6,31.01,WSW,246,0.0,0.0,100,0.00,,,0.00,VWS V13.01,2013-10-28 08:22:00,
2013-10-28 04:28:00,37.9,37.9,31.01,WNW,287,0.0,6.3,100,0.00,,,0.00,VWS V13.01,2013-10-28 08:28:00,
2013-10-28 04:34:00,37.9,37.9,31.01,WNW,290,0.0,5.4,100,0.00,,,0.00,VWS V13.01,2013-10-28 08:34:00,
2013-10-28 04:40:00,38.1,38.1,31.01,West,275,0.0,0.0,100,0.00,,,0.00,VWS V13.01,2013-10-28 08:40:00,
2013-10-28 04:46:00,38.3,38.3,31.01,SSW,204,0.0,8.1,100,0.00,,,0.00,VWS V13.01,2013-10-28 08:46:00,
2013-10-28 04:52:00,38.1,38.1,31.01,West,260,0.0,6.3,100,0.00,,,0.00,VWS V13.01,2013-10-28 08:52:00,
2013-10-28 04:58:00,38.1,38.1,31.01,WSW,240,0.0,7.2,100,0.00,,,0.00,VWS V13.01,2013-10-28 08:58:00,
2013-10-28 05:04:00,38.3,38.3,31.01,West,280,5.4,10.7,100,0.00,,,0.00,VWS V13.01,2013-10-28 09:04:00,
2013-10-28 05:10:00,38.7,38.7,31.01,WSW,250,4.0,12.5,100,0.00,,,0.00,VWS V13.01,2013-10-28 09:10:00,
2013-10-28 05:16:00,38.7,38.7,31.01,WNW,301,3.4,10.7,100,0.00,,,0.00,VWS V13.01,2013-10-28 09:16:00,
2013-10-28 05:22:00,38.8,38.8,31.01,West,270,4.7,12.5,100,0.00,,,0.00,VWS V13.01,2013-10-28 09:22:00,
2013-10-28 05:28:00,38.8,38.8,31.01,West,274,4.0,6.3,100,0.00,,,0.00,VWS V13.01,2013-10-28 09:28:00,
2013-10-28 05:34:00,39.0,39.0,31.01,WNW,283,0.0,10.7,100,0.00,,,0.00,VWS V13.01,2013-10-28 09:34:00,
2013-10-28 05:40:00,39.2,39.2,31.01,WNW,291,8.1,12.5,100,0.00,,,0.00,VWS V13.01,2013-10-28 09:40:00,
2013-10-28 05:46:00,39.2,39.2,31.01,WNW,301,0.0,10.7,100,0.00,,,0.00,VWS V13.01,2013-10-28 09:46:00,
2013-10-28 05:52:00,39.4,39.4,31.01,WNW,303,4.7,10.7,100,0.00,,,0.00,VWS V13.01,2013-10-28 09:52:00,
2013-10-28 05:58:00,39.7,39.7,31.01,West,270,4.7,10.7,100,0.00,,,0.00,VWS V13.01,2013-10-28 09:58:00,
2013-10-28 06:04:00,39.7,39.7,31.01,West,266,0.0,11.6,100,0.00,,,0.00,VWS V13.01,2013-10-28 10:04:00,
2013-10-28 06:10:00,39.7,39.7,31.01,West,272,0.0,8.1,100,0.00,,,0.00,VWS V13.01,2013-10-28 10:10:00,
2013-10-28 06:16:00,39.7,39.7,31.01,West,263,0.0,5.4,100,0.00,,,0.00,VWS V13.01,2013-10-28 10:16:00,
2013-10-28 06:22:00,39.7,39.7,31.01,WSW,241,0.0,7.2,100,0.00,,,0.00,VWS V13.01,2013-10-28 10:22:00,
2013-10-28 06:28:00,39.9,39.9,31.01,WSW,238,5.4,9.8,100,0.00,,,0.00,VWS V13.01,2013-10-28 10:28:00,
2013-10-28 06:34:00,39.9,39.9,31.01,West,273,8.7,11.6,100,0.00,,,0.00,VWS V13.01,2013-10-28 10:34:00,
2013-10-28 06:40:00,39.9,39.9,31.01,NW,321,6.0,10.7,100,0.00,,,0.00,VWS V13.01,2013-10-28 10:40:00,
2013-10-28 06:46:00,39.9,39.9,31.01,WSW,258,3.4,10.7,100,0.00,,,0.00,VWS V13.01,2013-10-28 10:46:00,
2013-10-28 06:52:00,39.9,39.9,31.01,NW,305,5.4,16.1,100,0.00,,,0.00,VWS V13.01,2013-10-28 10:52:00,
2013-10-28 06:58:00,40.3,40.3,31.01,WNW,298,12.4,16.6,100,0.00,,,0.00,VWS V13.01,2013-10-28 10:58:00,
2013-10-28 07:04:00,40.5,40.5,31.01,WNW,302,6.0,15.2,100,0.00,,,0.00,VWS V13.01,2013-10-28 11:04:00,
2013-10-28 07:10:00,40.6,40.6,31.01,NNW,343,8.1,24.6,100,0.00,,,0.00,VWS V13.01,2013-10-28 11:10:00,
2013-10-28 07:16:00,41.0,41.0,31.01,NNW,335,9.4,21.9,100,0.00,,,0.00,VWS V13.01,2013-10-28 11:16:00,
2013-10-28 07:22:00,41.0,41.0,31.01,North,0,11.4,15.2,100,0.00,,,0.00,VWS V13.01,2013-10-28 11:22:00,
2013-10-28 07:28:00,41.0,41.0,31.01,WNW,287,5.4,28.2,100,0.00,,,0.00,VWS V13.01,2013-10-28 11:28:00,
2013-10-28 07:34:00,41.2,41.2,31.01,NNW,330,9.4,15.2,100,0.00,,,0.00,VWS V13.01,2013-10-28 11:34:00,
2013-10-28 07:40:00,41.4,41.4,31.01,North,3,21.1,28.2,100,0.00,,,0.00,VWS V13.01,2013-10-28 11:40:00,
2013-10-28 07:46:00,41.4,41.4,31.01,NW,313,5.4,20.1,100,0.00,,,0.00,VWS V13.01,2013-10-28 11:46:00,
2013-10-28 07:52:00,41.4,41.4,31.01,NW,312,5.4,16.6,100,0.00,,,0.00,VWS V13.01,2013-10-28 11:52:00,
2013-10-28 07:58:00,41.4,41.4,31.01,WNW,298,12.1,22.8,100,0.00,,,0.00,VWS V13.01,2013-10-28 11:58:00,
2013-10-28 08:04:00,41.5,41.5,31.01,North,353,18.5,25.5,100,0.00,,,0.00,VWS V13.01,2013-10-28 12:04:00,
2013-10-28 08:10:00,41.5,41.5,31.01,NNW,337,13.1,26.4,100,0.00,,,0.00,VWS V13.01,2013-10-28 12:10:00,
2013-10-28 08:16:00,41.5,41.5,31.01,NW,320,19.1,25.5,100,0.00,,,0.00,VWS V13.01,2013-10-28 12:16:00,
2013-10-28 08:22:00,41.5,41.5,31.01,NNW,344,13.1,21.9,100,0.00,,,0.00,VWS V13.01,2013-10-28 12:22:00,
2013-10-28 08:28:00,41.5,41.5,31.01,NW,326,11.4,16.6,100,0.00,,,0.00,VWS V13.01,2013-10-28 12:28:00,
2013-10-28 08:34:00,41.5,41.5,31.01,North,5,17.8,23.7,100,0.00,,,0.00,VWS V13.01,2013-10-28 12:34:00,
2013-10-28 08:40:00,41.7,41.7,31.01,NNW,328,8.7,21.0,100,0.00,,,0.00,VWS V13.01,2013-10-28 12:40:00,
2013-10-28 08:46:00,41.7,41.7,31.01,NNE,15,16.4,21.9,100,0.00,,,0.00,VWS V13.01,2013-10-28 12:46:00,
2013-10-28 08:52:00,41.7,41.7,31.01,NNE,12,8.1,21.9,100,0.00,,,0.00,VWS V13.01,2013-10-28 12:52:00,
2013-10-28 08:58:00,41.9,41.9,31.01,NW,320,6.0,21.9,100,0.00,,,0.00,VWS V13.01,2013-10-28 12:58:00,
2013-10-28 09:04:00,41.9,41.9,31.01,NE,53,9.4,15.2,100,0.00,,,0.00,VWS V13.01,2013-10-28 13:04:00,
2013-10-28 09:10:00,41.7,41.7,31.01,NNW,344,8.1,20.1,100,0.00,,,0.00,VWS V13.01,2013-10-28 13:10:00,
2013-10-28 09:16:00,41.9,41.9,31.01,NW,321,6.7,11.6,100,0.00,,,0.00,VWS V13.01,2013-10-28 13:16:00,
2013-10-28 09:22:00,42.3,42.3,31.01,North,357,8.7,21.0,100,0.00,,,0.00,VWS V13.01,2013-10-28 13:22:00,
2013-10-28 09:28:00,42.4,42.4,31.01,ENE,61,4.0,21.0,100,0.00,,,0.00,VWS V13.01,2013-10-28 13:28:00,
2013-10-28 09:34:00,42.8,42.8,31.01,NNW,343,11.4,20.1,100,0.00,,,0.00,VWS V13.01,2013-10-28 13:34:00,
2013-10-28 09:40:00,43.9,43.9,31.01,NNW,345,19.1,34.9,100,0.00,,,0.00,VWS V13.01,2013-10-28 13:40:00,
2013-10-28 09:46:00,43.2,43.2,31.01,North,7,10.1,30.9,100,0.00,,,0.00,VWS V13.01,2013-10-28 13:46:00,
2013-10-28 09:52:00,44.4,44.4,31.01,NNE,13,9.4,20.1,100,0.00,,,0.00,VWS V13.01,2013-10-28 13:52:00,
2013-10-28 09:58:00,43.9,43.9,31.01,ENE,76,17.8,30.0,100,0.00,,,0.00,VWS V13.01,2013-10-28 13:58:00,
2013-10-28 10:04:00,44.6,44.6,31.01,North,4,12.1,27.3,100,0.00,,,0.00,VWS V13.01,2013-10-28 14:04:00,
2013-10-28 10:10:00,45.5,45.5,31.01,North,353,15.8,21.0,100,0.00,,,0.00,VWS V13.01,2013-10-28 14:10:00,
2013-10-28 10:16:00,44.8,44.8,31.01,NNE,27,8.1,17.4,100,0.00,,,0.00,VWS V13.01,2013-10-28 14:16:00,
2013-10-28 10:22:00,46.0,42.7,31.01,NE,40,4.7,16.1,88,0.00,,,0.00,VWS V13.01,2013-10-28 14:22:00,
2013-10-28 10:28:00,45.5,42.2,31.01,NE,34,11.4,22.8,88,0.00,,,0.00,VWS V13.01,2013-10-28 14:28:00,
2013-10-28 10:34:00,46.9,39.8,31.01,NE,54,5.4,15.2,76,0.00,,,0.00,VWS V13.01,2013-10-28 14:34:00,
2013-10-28 10:40:00,46.2,40.4,31.01,East,88,8.7,17.4,80,0.00,,,0.00,VWS V13.01,2013-10-28 14:40:00,
2013-10-28 10:46:00,45.9,40.0,31.01,NE,38,10.1,20.1,80,0.04,,,0.04,VWS V13.01,2013-10-28 14:46:00,
2013-10-28 10:52:00,45.1,39.3,31.01,North,2,13.1,35.8,80,0.04,,,0.04,VWS V13.01,2013-10-28 14:52:00,
2013-10-28 10:58:00,44.6,38.8,31.01,ENE,57,11.4,25.5,80,0.04,,,0.04,VWS V13.01,2013-10-28 14:58:00,
2013-10-28 11:04:00,44.8,39.0,31.01,North,10,9.4,25.5,80,0.04,,,0.04,VWS V13.01,2013-10-28 15:04:00,
2013-10-28 11:10:00,44.8,39.0,31.01,NE,38,16.4,27.3,80,0.04,,,0.04,VWS V13.01,2013-10-28 15:10:00,
2013-10-28 11:16:00,45.1,39.3,31.01,ESE,115,8.7,30.0,80,0.04,,,0.04,VWS V13.01,2013-10-28 15:16:00,
2013-10-28 11:22:00,45.5,39.7,31.01,ENE,68,8.1,23.7,80,0.04,,,0.04,VWS V13.01,2013-10-28 15:22:00,
2013-10-28 11:28:00,45.5,39.7,31.01,North,11,12.1,26.4,80,0.04,,,0.04,VWS V13.01,2013-10-28 15:28:00,
2013-10-28 11:34:00,44.8,39.0,31.01,NE,48,8.7,26.4,80,0.04,,,0.04,VWS V13.01,2013-10-28 15:34:00,
2013-10-28 11:40:00,44.6,38.8,31.01,East,87,14.4,30.0,80,0.04,,,0.04,VWS V13.01,2013-10-28 15:40:00,
2013-10-28 11:46:00,45.5,39.7,31.01,North,357,12.4,16.6,80,0.04,,,0.04,VWS V13.01,2013-10-28 15:46:00,
2013-10-28 11:52:00,45.0,39.2,31.01,NNE,33,8.7,21.9,80,0.00,,,0.04,VWS V13.01,2013-10-28 15:52:00,
2013-10-28 11:58:00,42.3,37.8,31.01,ENE,61,16.4,27.3,84,0.00,,,0.04,VWS V13.01,2013-10-28 15:58:00,
2013-10-28 12:04:00,42.1,37.6,31.01,NE,55,9.4,16.6,84,0.00,,,0.04,VWS V13.01,2013-10-28 16:04:00,
2013-10-28 12:10:00,44.4,38.7,31.01,NE,52,12.1,17.4,80,0.00,,,0.04,VWS V13.01,2013-10-28 16:10:00,
2013-10-28 12:16:00,42.4,38.0,31.01,NE,34,12.4,21.9,84,0.00,,,0.04,VWS V13.01,2013-10-28 16:16:00,
2013-10-28 12:22:00,43.5,37.8,31.01,NE,51,7.4,21.9,80,0.00,,,0.04,VWS V13.01,2013-10-28 16:22:00,
2013-10-28 12:28:00,45.1,39.3,31.01,ENE,74,8.1,21.0,80,0.00,,,0.04,VWS V13.01,2013-10-28 16:28:00,
2013-10-28 12:34:00,46.0,40.2,31.01,NE,35,8.7,19.2,80,0.00,,,0.04,VWS V13.01,2013-10-28 16:34:00,
2013-10-28 12:40:00,45.3,39.5,31.01,ENE,75,11.4,20.1,80,0.00,,,0.04,VWS V13.01,2013-10-28 16:40:00,
2013-10-28 12:46:00,45.3,39.5,31.01,ENE,59,12.4,32.7,80,0.00,,,0.04,VWS V13.01,2013-10-28 16:46:00,
2013-10-28 12:52:00,45.5,39.7,31.01,East,93,6.0,16.6,80,0.00,,,0.04,VWS V13.01,2013-10-28 16:52:00,
2013-10-28 12:58:00,46.0,40.2,31.01,East,87,11.4,16.6,80,0.00,,,0.04,VWS V13.01,2013-10-28 16:58:00,
2013-10-28 13:04:00,43.7,38.0,31.01,East,88,9.4,25.5,80,0.00,,,0.04,VWS V13.01,2013-10-28 17:04:00,
2013-10-28 13:10:00,42.8,37.1,31.01,NNE,12,8.7,26.4,80,0.00,,,0.04,VWS V13.01,2013-10-28 17:10:00,
2013-10-28 13:16:00,45.0,39.2,31.01,ENE,70,9.4,15.2,80,0.00,,,0.04,VWS V13.01,2013-10-28 17:16:00,
2013-10-28 13:22:00,46.8,39.6,31.01,NE,48,5.4,20.1,76,0.00,,,0.04,VWS V13.01,2013-10-28 17:22:00,
2013-10-28 13:28:00,46.8,39.6,31.01,East,94,8.7,19.2,76,0.00,,,0.04,VWS V13.01,2013-10-28 17:28:00,
2013-10-28 13:34:00,46.0,40.2,31.01,ENE,63,8.7,20.1,80,0.00,,,0.04,VWS V13.01,2013-10-28 17:34:00,
2013-10-28 13:40:00,44.4,38.7,31.01,ENE,69,9.4,26.4,80,0.00,,,0.04,VWS V13.01,2013-10-28 17:40:00,
2013-10-28 13:46:00,45.1,39.3,31.01,East,81,8.7,17.4,80,0.00,,,0.04,VWS V13.01,2013-10-28 17:46:00,
2013-10-28 13:52:00,46.2,40.4,31.01,ENE,75,9.4,16.6,80,0.00,,,0.04,VWS V13.01,2013-10-28 17:52:00,
2013-10-28 13:58:00,46.0,40.2,31.01,North,6,10.7,16.6,80,0.00,,,0.04,VWS V13.01,2013-10-28 17:58:00,
2013-10-28 14:04:00,45.7,39.9,31.01,ENE,75,9.4,23.7,80,0.00,,,0.04,VWS V13.01,2013-10-28 18:04:00,
2013-10-28 14:10:00,46.2,40.4,31.01,NE,49,8.7,21.0,80,0.00,,,0.04,VWS V13.01,2013-10-28 18:10:00,
2013-10-28 14:16:00,47.7,40.5,31.01,NE,42,8.1,10.7,76,0.00,,,0.04,VWS V13.01,2013-10-28 18:16:00,
2013-10-28 14:22:00,45.7,39.9,31.01,ENE,78,12.1,16.6,80,0.00,,,0.04,VWS V13.01,2013-10-28 18:22:00,
2013-10-28 14:27:00,46.8,39.6,31.01,ESE,122,7.4,12.5,76,0.00,,,0.04,VWS V13.01,2013-10-28 18:27:00,
2013-10-28 14:34:00,45.9,40.0,31.01,ENE,70,8.7,12.5,80,0.00,,,0.04,VWS V13.01,2013-10-28 18:34:00,
2013-10-28 14:40:00,45.9,40.0,31.01,NW,323,15.1,20.1,80,0.00,,,0.04,VWS V13.01,2013-10-28 18:40:00,
2013-10-28 14:46:00,44.8,39.0,31.01,NNE,21,15.1,20.1,80,0.00,,,0.04,VWS V13.01,2013-10-28 18:46:00,
2013-10-28 14:52:00,45.3,39.5,31.01,ENE,63,5.4,20.1,80,0.00,,,0.04,VWS V13.01,2013-10-28 18:52:00,
2013-10-28 14:58:00,47.8,40.7,31.01,NE,34,9.4,16.6,76,0.00,,,0.04,VWS V13.01,2013-10-28 18:58:00,
2013-10-28 15:04:00,45.9,40.0,31.01,North,357,13.1,18.3,80,0.00,,,0.04,VWS V13.01,2013-10-28 19:04:00,
2013-10-28 15:10:00,46.6,39.4,31.01,ENE,71,8.7,21.0,76,0.00,,,0.04,VWS V13.01,2013-10-28 19:10:00,
2013-10-28 15:16:00,47.3,40.1,31.01,ENE,63,8.1,16.6,76,0.00,,,0.04,VWS V13.01,2013-10-28 19:16:00,
2013-10-28 15:22:00,48.2,41.0,31.01,NE,43,4.7,10.7,76,0.00,,,0.04,VWS V13.01,2013-10-28 19:22:00,
2013-10-28 15:28:00,44.8,39.0,31.01,East,80,12.4,16.6,80,0.00,,,0.04,VWS V13.01,2013-10-28 19:28:00,
2013-10-28 15:34:00,45.1,39.3,31.01,East,96,8.1,16.1,80,0.00,,,0.04,VWS V13.01,2013-10-28 19:34:00,
2013-10-28 15:40:00,44.4,38.7,31.01,ENE,72,8.7,15.2,80,0.00,,,0.04,VWS V13.01,2013-10-28 19:40:00,
2013-10-28 15:46:00,46.6,39.4,31.01,ENE,59,8.1,13.4,76,0.00,,,0.04,VWS V13.01,2013-10-28 19:46:00,
2013-10-28 15:52:00,48.7,41.5,31.01,NE,34,4.7,13.4,76,0.00,,,0.04,VWS V13.01,2013-10-28 19:52:00,
2013-10-28 15:58:00,47.8,40.7,31.01,NE,38,7.4,17.4,76,0.00,,,0.04,VWS V13.01,2013-10-28 19:58:00,
2013-10-28 16:04:00,46.0,40.2,31.01,NE,48,11.4,15.2,80,0.00,,,0.04,VWS V13.01,2013-10-28 20:04:00,
2013-10-28 16:10:00,46.4,39.3,31.01,ENE,64,5.4,16.1,76,0.00,,,0.04,VWS V13.01,2013-10-28 20:10:00,
2013-10-28 16:16:00,45.5,39.7,31.01,NE,39,6.0,21.0,80,0.00,,,0.04,VWS V13.01,2013-10-28 20:16:00,
2013-10-28 16:22:00,44.8,39.0,31.01,ENE,68,6.0,16.6,80,0.00,,,0.04,VWS V13.01,2013-10-28 20:22:00,
2013-10-28 16:28:00,45.3,39.5,31.01,NE,47,8.7,17.4,80,0.00,,,0.04,VWS V13.01,2013-10-28 20:28:00,
2013-10-28 16:34:00,45.1,39.3,31.01,NE,46,6.0,15.2,80,0.00,,,0.04,VWS V13.01,2013-10-28 20:34:00,
2013-10-28 16:40:00,42.8,37.1,31.01,NNE,14,11.4,21.9,80,0.00,,,0.04,VWS V13.01,2013-10-28 20:40:00,
2013-10-28 16:46:00,42.8,37.1,31.01,NE,35,7.4,24.6,80,0.00,,,0.04,VWS V13.01,2013-10-28 20:46:00,
2013-10-28 16:52:00,43.0,37.2,31.01,NE,43,6.0,12.5,80,0.00,,,0.04,VWS V13.01,2013-10-28 20:52:00,
2013-10-28 16:58:00,43.7,38.0,31.01,ENE,69,6.0,12.5,80,0.00,,,0.04,VWS V13.01,2013-10-28 20:58:00,
2013-10-28 17:04:00,43.3,37.6,31.01,NNE,33,8.1,16.6,80,0.00,,,0.04,VWS V13.01,2013-10-28 21:04:00,
2013-10-28 17:10:00,42.8,37.1,31.01,NE,36,4.0,11.6,80,0.00,,,0.04,VWS V13.01,2013-10-28 21:10:00,
2013-10-28 17:16:00,42.4,38.0,31.01,ENE,69,5.4,8.1,84,0.00,,,0.04,VWS V13.01,2013-10-28 21:16:00,
2013-10-28 17:22:00,41.2,32.8,31.01,ENE,64,6.0,13.4,72,0.00,,,0.04,VWS V13.01,2013-10-28 21:22:00,
2013-10-28 17:28:00,39.9,31.6,31.01,NE,50,8.7,16.1,72,0.00,,,0.04,VWS V13.01,2013-10-28 21:28:00,
2013-10-28 17:34:00,38.5,31.6,31.01,NE,39,4.7,12.5,76,0.00,,,0.04,VWS V13.01,2013-10-28 21:34:00,
2013-10-28 17:40:00,36.7,29.8,31.01,ENE,63,5.4,7.2,76,0.00,,,0.04,VWS V13.01,2013-10-28 21:40:00,
2013-10-28 17:46:00,35.8,29.0,31.01,NE,44,4.7,7.2,76,0.00,,,0.04,VWS V13.01,2013-10-28 21:46:00,
2013-10-28 17:52:00,35.1,29.5,31.01,NNE,30,0.0,6.3,80,0.00,,,0.04,VWS V13.01,2013-10-28 21:52:00,
2013-10-28 17:58:00,35.1,29.5,31.01,NE,37,6.0,11.6,80,0.00,,,0.04,VWS V13.01,2013-10-28 21:58:00,
2013-10-28 18:04:00,34.3,28.8,31.01,NE,51,3.4,7.2,80,0.00,,,0.04,VWS V13.01,2013-10-28 22:04:00,
2013-10-28 18:10:00,34.0,28.5,31.01,East,85,4.7,6.3,80,0.00,,,0.04,VWS V13.01,2013-10-28 22:10:00,
2013-10-28 18:16:00,33.3,27.8,31.01,East,81,0.0,0.0,80,0.00,,,0.04,VWS V13.01,2013-10-28 22:16:00,
2013-10-28 18:22:00,32.2,30.1,31.01,ENE,64,0.0,0.0,92,0.00,,,0.04,VWS V13.01,2013-10-28 22:22:00,
2013-10-28 18:28:00,31.6,29.6,31.01,ENE,64,0.0,0.0,92,0.00,,,0.04,VWS V13.01,2013-10-28 22:28:00,
2013-10-28 18:34:00,31.3,29.2,31.01,ENE,64,0.0,0.0,92,0.00,,,0.04,VWS V13.01,2013-10-28 22:34:00,
2013-10-28 18:40:00,31.1,29.0,31.01,ENE,64,0.0,0.0,92,0.00,,,0.04,VWS V13.01,2013-10-28 22:40:00,
2013-10-28 18:46:00,30.0,28.0,31.01,ENE,64,0.0,0.0,92,0.00,,,0.04,VWS V13.01,2013-10-28 22:46:00,
2013-10-28 18:52:00,31.5,31.5,31.01,North,0,4.0,7.2,100,0.00,,,0.04,VWS V13.01,2013-10-28 22:52:00,
2013-10-28 18:58:00,32.0,32.0,31.01,NNE,15,4.7,6.3,100,0.00,,,0.04,VWS V13.01,2013-10-28 22:58:00,
2013-10-28 19:04:00,32.0,29.9,31.01,NNE,24,4.0,6.3,92,0.00,,,0.04,VWS V13.01,2013-10-28 23:04:00,
2013-10-28 19:10:00,31.3,31.3,31.01,NE,39,3.4,7.2,100,0.00,,,0.04,VWS V13.01,2013-10-28 23:10:00,
2013-10-28 19:16:00,30.9,30.9,31.01,North,5,4.7,6.3,100,0.00,,,0.04,VWS V13.01,2013-10-28 23:16:00,
2013-10-28 19:22:00,30.2,30.2,31.01,North,4,0.0,0.0,100,0.00,,,0.04,VWS V13.01,2013-10-28 23:22:00,
2013-10-28 19:28:00,31.3,31.3,31.01,NNE,18,4.0,7.2,100,0.00,,,0.04,VWS V13.01,2013-10-28 23:28:00,
2013-10-28 19:34:00,31.5,31.5,31.01,NNE,20,7.4,9.8,100,0.00,,,0.04,VWS V13.01,2013-10-28 23:34:00,
2013-10-28 19:40:00,31.3,31.3,31.01,North,353,5.4,7.2,100,0.00,,,0.04,VWS V13.01,2013-10-28 23:40:00,
2013-10-28 19:46:00,30.9,30.9,31.01,North,353,4.0,7.2,100,0.00,,,0.04,VWS V13.01,2013-10-28 23:46:00,
2013-10-28 19:52:00,31.6,31.6,31.01,NNE,20,4.7,10.7,100,0.00,,,0.04,VWS V13.01,2013-10-28 23:52:00,
2013-10-28 19:58:00,32.0,29.9,31.01,NNE,15,0.0,12.5,92,0.00,,,0.04,VWS V13.01,2013-10-28 23:58:00,
2013-10-28 20:04:00,31.3,31.3,31.01,NNE,33,3.4,8.1,100,0.00,,,0.04,VWS V13.01,2013-10-29 00:04:00,
2013-10-28 20:10:00,30.4,30.4,31.01,North,357,5.4,8.1,100,0.00,,,0.04,VWS V13.01,2013-10-29 00:10:00,
2013-10-28 20:16:00,30.4,30.4,31.01,North,357,4.0,6.3,100,0.00,,,0.04,VWS V13.01,2013-10-29 00:16:00,
2013-10-28 20:22:00,30.7,30.7,31.01,NNE,23,4.0,8.1,100,0.00,,,0.04,VWS V13.01,2013-10-29 00:22:00,
2013-10-28 20:28:00,29.3,29.3,31.01,NNE,23,0.0,0.0,100,0.00,,,0.04,VWS V13.01,2013-10-29 00:28:00,
2013-10-28 20:34:00,28.4,28.4,31.01,NNE,23,0.0,0.0,100,0.00,,,0.04,VWS V13.01,2013-10-29 00:34:00,
2013-10-28 20:40:00,28.9,28.9,31.01,NNE,21,0.0,0.0,100,0.00,,,0.04,VWS V13.01,2013-10-29 00:40:00,
2013-10-28 20:46:00,27.5,27.5,31.01,NNE,21,0.0,0.0,100,0.00,,,0.04,VWS V13.01,2013-10-29 00:46:00,
2013-10-28 20:52:00,27.0,27.0,31.01,NNE,21,0.0,0.0,100,0.00,,,0.04,VWS V13.01,2013-10-29 00:52:00,
2013-10-28 20:58:00,27.1,27.1,31.01,NNE,21,0.0,0.0,100,0.00,,,0.04,VWS V13.01,2013-10-29 00:58:00,
2013-10-28 21:04:00,27.0,27.0,31.01,NNE,21,0.0,0.0,100,0.00,,,0.04,VWS V13.01,2013-10-29 01:04:00,
2013-10-28 21:10:00,26.1,26.1,31.01,NNE,21,0.0,0.0,100,0.00,,,0.04,VWS V13.01,2013-10-29 01:10:00,
2013-10-28 21:16:00,26.4,26.4,31.01,NNE,21,0.0,0.0,100,0.00,,,0.04,VWS V13.01,2013-10-29 01:16:00,
2013-10-28 21:22:00,27.5,27.5,31.01,NNE,21,0.0,0.0,100,0.00,,,0.04,VWS V13.01,2013-10-29 01:22:00,
2013-10-28 21:28:00,27.0,27.0,31.01,NNE,21,0.0,0.0,100,0.00,,,0.04,VWS V13.01,2013-10-29 01:28:00,
2013-10-28 21:34:00,26.2,26.2,31.01,NNE,21,0.0,0.0,100,0.00,,,0.04,VWS V13.01,2013-10-29 01:34:00,
2013-10-28 21:40:00,26.2,26.2,31.01,NNE,21,0.0,0.0,100,0.00,,,0.04,VWS V13.01,2013-10-29 01:40:00,
2013-10-28 21:46:00,25.0,25.0,31.01,NNE,21,0.0,0.0,100,0.00,,,0.04,VWS V13.01,2013-10-29 01:46:00,
2013-10-28 21:52:00,24.3,24.3,31.01,NNE,21,0.0,0.0,100,0.00,,,0.04,VWS V13.01,2013-10-29 01:52:00,
2013-10-28 21:58:00,24.1,24.1,31.01,NNE,21,0.0,0.0,100,0.00,,,0.04,VWS V13.01,2013-10-29 01:58:00,
2013-10-28 22:04:00,25.0,25.0,31.01,NNE,21,0.0,0.0,100,0.00,,,0.04,VWS V13.01,2013-10-29 02:04:00,
2013-10-28 22:10:00,24.4,24.4,31.01,NNE,21,0.0,0.0,100,0.00,,,0.04,VWS V13.01,2013-10-29 02:10:00,
2013-10-28 22:16:00,23.9,23.9,31.01,NNE,21,0.0,0.0,100,0.00,,,0.04,VWS V13.01,2013-10-29 02:16:00,
2013-10-28 22:22:00,25.0,25.0,31.01,NNE,21,0.0,0.0,100,0.00,,,0.04,VWS V13.01,2013-10-29 02:22:00,
2013-10-28 22:28:00,24.4,24.4,31.01,NNE,21,0.0,0.0,100,0.00,,,0.04,VWS V13.01,2013-10-29 02:28:00,
2013-10-28 22:34:00,24.6,24.6,31.01,NNE,21,0.0,0.0,100,0.00,,,0.04,VWS V13.01,2013-10-29 02:34:00,
2013-10-28 22:40:00,24.4,24.4,31.01,NNE,21,0.0,0.0,100,0.00,,,0.04,VWS V13.01,2013-10-29 02:40:00,
2013-10-28 22:46:00,24.1,24.1,31.01,NNE,21,0.0,0.0,100,0.00,,,0.04,VWS V13.01,2013-10-29 02:46:00,
2013-10-28 22:52:00,24.3,24.3,31.01,NNE,21,0.0,0.0,100,0.00,,,0.04,VWS V13.01,2013-10-29 02:52:00,
2013-10-28 22:58:00,23.4,23.4,31.01,NNE,21,0.0,0.0,100,0.00,,,0.04,VWS V13.01,2013-10-29 02:58:00,
2013-10-28 23:04:00,23.5,23.5,31.01,NNE,21,0.0,0.0,100,0.00,,,0.04,VWS V13.01,2013-10-29 03:04:00,
2013-10-28 23:10:00,23.2,23.2,31.01,NNE,21,0.0,0.0,100,0.00,,,0.04,VWS V13.01,2013-10-29 03:10:00,
2013-10-28 23:16:00,23.5,23.5,31.01,NNE,21,0.0,0.0,100,0.00,,,0.04,VWS V13.01,2013-10-29 03:16:00,
2013-10-28 23:22:00,23.2,23.2,31.01,NNE,21,0.0,0.0,100,0.00,,,0.04,VWS V13.01,2013-10-29 03:22:00,
2013-10-28 23:28:00,23.5,23.5,31.01,NNE,21,0.0,0.0,100,0.00,,,0.04,VWS V13.01,2013-10-29 03:28:00,
2013-10-28 23:34:00,24.3,24.3,31.01,NNE,21,0.0,0.0,100,0.00,,,0.04,VWS V13.01,2013-10-29 03:34:00,
2013-10-28 23:40:00,23.5,23.5,31.01,NNE,21,0.0,0.0,100,0.00,,,0.04,VWS V13.01,2013-10-29 03:40:00,
2013-10-28 23:46:00,24.1,24.1,31.01,NNE,21,0.0,0.0,100,0.00,,,0.04,VWS V13.01,2013-10-29 03:46:00,
2013-10-28 23:52:00,23.4,23.4,31.01,NNE,21,0.0,0.0,100,0.00,,,0.04,VWS V13.01,2013-10-29 03:52:00,
2013-10-28 23:58:00,23.2,23.2,31.01,NNE,21,0.0,0.0,100,0.00,,,0.04,VWS V13.01,2013-10-29 03:58:00,